sensor_id;sensor_type;location;lat;lon;timestamp;P1;durP1;ratioP1;P2;durP2;ratioP2
18592;SDS011;9426;54.118;17.948;2022-10-16T00:04:09;151.73;;;49.90;;
18592;SDS011;9426;54.118;17.948;2022-10-16T00:09:34;134.53;;;45.40;;
18592;SDS011;9426;54.118;17.948;2022-10-16T00:14:57;98.57;;;37.40;;
18592;SDS011;9426;54.118;17.948;2022-10-16T00:20:21;107.13;;;41.10;;
18592;SDS011;9426;54.118;17.948;2022-10-16T00:25:53;113.50;;;41.40;;
18592;SDS011;9426;54.118;17.948;2022-10-16T00:31:18;89.27;;;38.30;;
18592;SDS011;9426;54.118;17.948;2022-10-16T00:36:42;96.10;;;39.17;;
18592;SDS011;9426;54.118;17.948;2022-10-16T00:42:09;93.63;;;38.93;;
18592;SDS011;9426;54.118;17.948;2022-10-16T00:47:37;83.23;;;36.43;;
18592;SDS011;9426;54.118;17.948;2022-10-16T00:53:02;86.57;;;36.60;;
18592;SDS011;9426;54.118;17.948;2022-10-16T00:58:27;80.73;;;38.60;;
18592;SDS011;9426;54.118;17.948;2022-10-16T01:03:50;70.40;;;33.67;;
18592;SDS011;9426;54.118;17.948;2022-10-16T01:09:15;87.03;;;38.47;;
18592;SDS011;9426;54.118;17.948;2022-10-16T01:14:45;68.27;;;33.53;;
18592;SDS011;9426;54.118;17.948;2022-10-16T01:20:18;57.87;;;30.10;;
18592;SDS011;9426;54.118;17.948;2022-10-16T01:25:58;53.63;;;28.70;;
18592;SDS011;9426;54.118;17.948;2022-10-16T01:31:33;52.70;;;28.03;;
18592;SDS011;9426;54.118;17.948;2022-10-16T01:37:00;45.17;;;24.43;;
18592;SDS011;9426;54.118;17.948;2022-10-16T01:42:28;40.67;;;21.27;;
18592;SDS011;9426;54.118;17.948;2022-10-16T01:47:57;42.43;;;22.83;;
18592;SDS011;9426;54.118;17.948;2022-10-16T01:53:25;42.70;;;23.53;;
18592;SDS011;9426;54.118;17.948;2022-10-16T01:58:51;53.47;;;28.07;;
18592;SDS011;9426;54.118;17.948;2022-10-16T02:04:20;41.20;;;22.83;;
18592;SDS011;9426;54.118;17.948;2022-10-16T02:09:47;49.90;;;25.77;;
18592;SDS011;9426;54.118;17.948;2022-10-16T02:15:10;70.43;;;34.13;;
18592;SDS011;9426;54.118;17.948;2022-10-16T02:20:36;66.10;;;33.17;;
18592;SDS011;9426;54.118;17.948;2022-10-16T02:26:05;48.43;;;26.43;;
18592;SDS011;9426;54.118;17.948;2022-10-16T02:31:32;54.37;;;28.40;;
18592;SDS011;9426;54.118;17.948;2022-10-16T02:37:02;71.40;;;34.27;;
18592;SDS011;9426;54.118;17.948;2022-10-16T02:42:28;56.80;;;30.07;;
18592;SDS011;9426;54.118;17.948;2022-10-16T02:47:51;57.77;;;30.57;;
18592;SDS011;9426;54.118;17.948;2022-10-16T02:53:16;57.73;;;29.83;;
18592;SDS011;9426;54.118;17.948;2022-10-16T02:58:40;74.77;;;34.70;;
18592;SDS011;9426;54.118;17.948;2022-10-16T03:04:04;50.53;;;27.07;;
18592;SDS011;9426;54.118;17.948;2022-10-16T03:09:28;67.23;;;33.80;;
18592;SDS011;9426;54.118;17.948;2022-10-16T03:14:52;44.67;;;24.17;;
18592;SDS011;9426;54.118;17.948;2022-10-16T03:20:15;62.63;;;32.73;;
18592;SDS011;9426;54.118;17.948;2022-10-16T03:25:40;62.60;;;31.83;;
18592;SDS011;9426;54.118;17.948;2022-10-16T03:31:03;61.33;;;32.63;;
18592;SDS011;9426;54.118;17.948;2022-10-16T03:36:27;72.73;;;34.90;;
18592;SDS011;9426;54.118;17.948;2022-10-16T03:41:52;72.50;;;34.33;;
18592;SDS011;9426;54.118;17.948;2022-10-16T03:47:15;75.73;;;35.83;;
18592;SDS011;9426;54.118;17.948;2022-10-16T03:52:42;71.73;;;34.80;;
18592;SDS011;9426;54.118;17.948;2022-10-16T03:58:07;77.80;;;37.57;;
18592;SDS011;9426;54.118;17.948;2022-10-16T04:03:30;73.33;;;34.13;;
18592;SDS011;9426;54.118;17.948;2022-10-16T04:08:53;69.70;;;34.60;;
18592;SDS011;9426;54.118;17.948;2022-10-16T04:14:18;73.77;;;34.93;;
18592;SDS011;9426;54.118;17.948;2022-10-16T04:19:42;65.10;;;32.83;;
18592;SDS011;9426;54.118;17.948;2022-10-16T04:25:05;76.00;;;37.60;;
18592;SDS011;9426;54.118;17.948;2022-10-16T04:30:30;80.13;;;39.53;;
18592;SDS011;9426;54.118;17.948;2022-10-16T04:35:57;97.50;;;44.87;;
18592;SDS011;9426;54.118;17.948;2022-10-16T04:41:21;70.83;;;36.33;;
18592;SDS011;9426;54.118;17.948;2022-10-16T04:46:46;78.37;;;39.90;;
18592;SDS011;9426;54.118;17.948;2022-10-16T04:52:09;82.67;;;40.60;;
18592;SDS011;9426;54.118;17.948;2022-10-16T04:57:33;78.30;;;40.13;;
18592;SDS011;9426;54.118;17.948;2022-10-16T05:02:57;73.80;;;38.30;;
18592;SDS011;9426;54.118;17.948;2022-10-16T05:08:21;82.87;;;43.70;;
18592;SDS011;9426;54.118;17.948;2022-10-16T05:13:45;77.47;;;40.73;;
18592;SDS011;9426;54.118;17.948;2022-10-16T05:19:10;75.70;;;39.83;;
18592;SDS011;9426;54.118;17.948;2022-10-16T05:24:48;74.67;;;39.17;;
18592;SDS011;9426;54.118;17.948;2022-10-16T05:30:12;70.77;;;37.83;;
18592;SDS011;9426;54.118;17.948;2022-10-16T05:35:37;85.47;;;43.20;;
18592;SDS011;9426;54.118;17.948;2022-10-16T05:41:00;76.63;;;39.40;;
18592;SDS011;9426;54.118;17.948;2022-10-16T05:46:23;81.10;;;42.60;;
18592;SDS011;9426;54.118;17.948;2022-10-16T05:51:48;84.00;;;43.27;;
18592;SDS011;9426;54.118;17.948;2022-10-16T05:57:11;84.00;;;42.80;;
18592;SDS011;9426;54.118;17.948;2022-10-16T06:02:35;73.30;;;37.03;;
18592;SDS011;9426;54.118;17.948;2022-10-16T06:08:00;70.17;;;37.83;;
18592;SDS011;9426;54.118;17.948;2022-10-16T06:13:23;103.00;;;46.87;;
18592;SDS011;9426;54.118;17.948;2022-10-16T06:18:47;73.30;;;40.03;;
18592;SDS011;9426;54.118;17.948;2022-10-16T06:24:12;87.50;;;44.53;;
18592;SDS011;9426;54.118;17.948;2022-10-16T06:29:35;93.60;;;44.83;;
18592;SDS011;9426;54.118;17.948;2022-10-16T06:34:58;77.03;;;39.87;;
18592;SDS011;9426;54.118;17.948;2022-10-16T06:40:23;88.40;;;43.70;;
18592;SDS011;9426;54.118;17.948;2022-10-16T06:45:49;76.73;;;40.87;;
18592;SDS011;9426;54.118;17.948;2022-10-16T06:51:14;76.57;;;38.37;;
18592;SDS011;9426;54.118;17.948;2022-10-16T06:56:40;72.03;;;36.67;;
18592;SDS011;9426;54.118;17.948;2022-10-16T07:02:03;66.47;;;35.17;;
18592;SDS011;9426;54.118;17.948;2022-10-16T07:07:28;85.47;;;42.10;;
18592;SDS011;9426;54.118;17.948;2022-10-16T07:12:52;88.37;;;43.90;;
18592;SDS011;9426;54.118;17.948;2022-10-16T07:18:16;70.53;;;37.83;;
18592;SDS011;9426;54.118;17.948;2022-10-16T07:23:43;83.07;;;40.70;;
18592;SDS011;9426;54.118;17.948;2022-10-16T07:29:11;81.13;;;42.17;;
18592;SDS011;9426;54.118;17.948;2022-10-16T07:34:36;70.10;;;37.80;;
18592;SDS011;9426;54.118;17.948;2022-10-16T07:39:59;73.37;;;39.33;;
18592;SDS011;9426;54.118;17.948;2022-10-16T07:45:25;69.07;;;38.17;;
18592;SDS011;9426;54.118;17.948;2022-10-16T07:50:50;65.47;;;37.40;;
18592;SDS011;9426;54.118;17.948;2022-10-16T07:56:13;72.40;;;38.47;;
18592;SDS011;9426;54.118;17.948;2022-10-16T08:01:40;67.63;;;38.53;;
18592;SDS011;9426;54.118;17.948;2022-10-16T08:07:04;58.87;;;33.13;;
18592;SDS011;9426;54.118;17.948;2022-10-16T08:12:30;56.03;;;32.93;;
18592;SDS011;9426;54.118;17.948;2022-10-16T08:17:56;63.60;;;36.80;;
18592;SDS011;9426;54.118;17.948;2022-10-16T08:23:20;63.53;;;34.43;;
18592;SDS011;9426;54.118;17.948;2022-10-16T08:28:44;58.97;;;33.93;;
18592;SDS011;9426;54.118;17.948;2022-10-16T08:34:09;68.87;;;36.07;;
18592;SDS011;9426;54.118;17.948;2022-10-16T08:39:32;53.63;;;31.73;;
18592;SDS011;9426;54.118;17.948;2022-10-16T08:45:02;55.13;;;33.23;;
18592;SDS011;9426;54.118;17.948;2022-10-16T08:50:39;60.87;;;34.20;;
18592;SDS011;9426;54.118;17.948;2022-10-16T08:56:03;46.70;;;30.17;;
18592;SDS011;9426;54.118;17.948;2022-10-16T09:01:29;49.43;;;32.43;;
18592;SDS011;9426;54.118;17.948;2022-10-16T09:07:03;49.60;;;30.07;;
18592;SDS011;9426;54.118;17.948;2022-10-16T09:12:39;45.13;;;26.77;;
18592;SDS011;9426;54.118;17.948;2022-10-16T09:18:17;41.27;;;27.77;;
18592;SDS011;9426;54.118;17.948;2022-10-16T09:23:48;42.50;;;27.57;;
18592;SDS011;9426;54.118;17.948;2022-10-16T09:29:13;39.13;;;25.50;;
18592;SDS011;9426;54.118;17.948;2022-10-16T09:34:39;40.77;;;27.10;;
18592;SDS011;9426;54.118;17.948;2022-10-16T09:40:11;31.03;;;22.03;;
18592;SDS011;9426;54.118;17.948;2022-10-16T09:45:35;47.53;;;25.67;;
18592;SDS011;9426;54.118;17.948;2022-10-16T09:51:00;37.57;;;24.53;;
18592;SDS011;9426;54.118;17.948;2022-10-16T09:56:26;31.70;;;22.67;;
18592;SDS011;9426;54.118;17.948;2022-10-16T10:01:51;33.10;;;23.20;;
18592;SDS011;9426;54.118;17.948;2022-10-16T10:07:21;26.57;;;19.37;;
18592;SDS011;9426;54.118;17.948;2022-10-16T10:12:50;30.43;;;21.27;;
18592;SDS011;9426;54.118;17.948;2022-10-16T10:18:17;28.83;;;20.03;;
18592;SDS011;9426;54.118;17.948;2022-10-16T10:23:43;25.00;;;17.93;;
18592;SDS011;9426;54.118;17.948;2022-10-16T10:29:22;19.70;;;14.73;;
18592;SDS011;9426;54.118;17.948;2022-10-16T10:35:00;18.93;;;13.37;;
18592;SDS011;9426;54.118;17.948;2022-10-16T10:40:37;17.67;;;12.40;;
18592;SDS011;9426;54.118;17.948;2022-10-16T10:46:11;16.00;;;12.20;;
18592;SDS011;9426;54.118;17.948;2022-10-16T10:51:41;14.07;;;10.60;;
18592;SDS011;9426;54.118;17.948;2022-10-16T10:57:14;16.93;;;11.13;;
18592;SDS011;9426;54.118;17.948;2022-10-16T11:02:46;14.73;;;10.00;;
18592;SDS011;9426;54.118;17.948;2022-10-16T11:08:16;12.07;;;9.73;;
18592;SDS011;9426;54.118;17.948;2022-10-16T11:13:43;10.37;;;8.07;;
18592;SDS011;9426;54.118;17.948;2022-10-16T11:19:18;9.63;;;8.47;;
18592;SDS011;9426;54.118;17.948;2022-10-16T11:24:49;12.20;;;9.03;;
18592;SDS011;9426;54.118;17.948;2022-10-16T11:30:24;12.33;;;8.60;;
18592;SDS011;9426;54.118;17.948;2022-10-16T11:35:51;9.83;;;7.97;;
18592;SDS011;9426;54.118;17.948;2022-10-16T11:41:20;10.20;;;8.00;;
18592;SDS011;9426;54.118;17.948;2022-10-16T11:46:50;9.10;;;7.23;;
18592;SDS011;9426;54.118;17.948;2022-10-16T11:52:33;6.90;;;5.93;;
18592;SDS011;9426;54.118;17.948;2022-10-16T11:58:03;11.07;;;6.60;;
18592;SDS011;9426;54.118;17.948;2022-10-16T12:03:33;12.30;;;8.20;;
18592;SDS011;9426;54.118;17.948;2022-10-16T12:09:02;13.60;;;7.33;;
18592;SDS011;9426;54.118;17.948;2022-10-16T12:14:33;7.87;;;6.70;;
18592;SDS011;9426;54.118;17.948;2022-10-16T12:20:25;16.10;;;6.67;;
18592;SDS011;9426;54.118;17.948;2022-10-16T12:25:55;13.80;;;8.43;;
18592;SDS011;9426;54.118;17.948;2022-10-16T12:31:20;9.07;;;7.33;;
18592;SDS011;9426;54.118;17.948;2022-10-16T12:36:44;9.80;;;7.97;;
18592;SDS011;9426;54.118;17.948;2022-10-16T12:47:55;12.93;;;8.10;;
18592;SDS011;9426;54.118;17.948;2022-10-16T12:53:21;14.97;;;8.63;;
18592;SDS011;9426;54.118;17.948;2022-10-16T12:58:53;13.20;;;8.77;;
18592;SDS011;9426;54.118;17.948;2022-10-16T13:10:19;7.47;;;6.43;;
18592;SDS011;9426;54.118;17.948;2022-10-16T13:15:57;13.57;;;7.23;;
18592;SDS011;9426;54.118;17.948;2022-10-16T13:21:36;8.33;;;5.97;;
18592;SDS011;9426;54.118;17.948;2022-10-16T13:27:09;8.33;;;6.70;;
18592;SDS011;9426;54.118;17.948;2022-10-16T13:32:43;10.23;;;6.07;;
18592;SDS011;9426;54.118;17.948;2022-10-16T13:38:11;9.73;;;5.80;;
18592;SDS011;9426;54.118;17.948;2022-10-16T13:43:37;10.10;;;7.80;;
18592;SDS011;9426;54.118;17.948;2022-10-16T13:49:04;9.37;;;7.10;;
18592;SDS011;9426;54.118;17.948;2022-10-16T13:54:28;12.73;;;7.10;;
18592;SDS011;9426;54.118;17.948;2022-10-16T13:59:52;12.17;;;8.03;;
18592;SDS011;9426;54.118;17.948;2022-10-16T14:05:17;8.00;;;5.80;;
18592;SDS011;9426;54.118;17.948;2022-10-16T14:10:41;14.07;;;6.13;;
18592;SDS011;9426;54.118;17.948;2022-10-16T14:16:06;9.97;;;6.07;;
18592;SDS011;9426;54.118;17.948;2022-10-16T14:21:35;13.00;;;6.57;;
18592;SDS011;9426;54.118;17.948;2022-10-16T14:27:20;8.93;;;6.50;;
18592;SDS011;9426;54.118;17.948;2022-10-16T14:32:53;10.90;;;6.47;;
18592;SDS011;9426;54.118;17.948;2022-10-16T14:38:19;19.70;;;7.60;;
18592;SDS011;9426;54.118;17.948;2022-10-16T14:43:43;9.53;;;6.40;;
18592;SDS011;9426;54.118;17.948;2022-10-16T14:49:13;8.63;;;6.40;;
18592;SDS011;9426;54.118;17.948;2022-10-16T14:54:41;8.20;;;6.10;;
18592;SDS011;9426;54.118;17.948;2022-10-16T15:00:08;6.80;;;5.47;;
18592;SDS011;9426;54.118;17.948;2022-10-16T15:05:37;7.90;;;5.60;;
18592;SDS011;9426;54.118;17.948;2022-10-16T15:11:03;10.23;;;6.80;;
18592;SDS011;9426;54.118;17.948;2022-10-16T15:16:28;7.80;;;6.00;;
18592;SDS011;9426;54.118;17.948;2022-10-16T15:21:52;8.10;;;5.90;;
18592;SDS011;9426;54.118;17.948;2022-10-16T15:27:17;8.93;;;5.47;;
18592;SDS011;9426;54.118;17.948;2022-10-16T15:32:41;7.50;;;5.50;;
18592;SDS011;9426;54.118;17.948;2022-10-16T15:38:05;11.80;;;6.23;;
18592;SDS011;9426;54.118;17.948;2022-10-16T15:43:30;9.67;;;5.93;;
18592;SDS011;9426;54.118;17.948;2022-10-16T15:48:55;9.50;;;5.50;;
18592;SDS011;9426;54.118;17.948;2022-10-16T15:54:20;9.23;;;6.20;;
18592;SDS011;9426;54.118;17.948;2022-10-16T15:59:45;8.40;;;6.03;;
18592;SDS011;9426;54.118;17.948;2022-10-16T16:05:08;9.00;;;6.60;;
18592;SDS011;9426;54.118;17.948;2022-10-16T16:10:32;12.80;;;7.37;;
18592;SDS011;9426;54.118;17.948;2022-10-16T16:15:57;16.30;;;9.53;;
18592;SDS011;9426;54.118;17.948;2022-10-16T16:21:20;13.17;;;8.60;;
18592;SDS011;9426;54.118;17.948;2022-10-16T16:26:44;27.83;;;17.07;;
18592;SDS011;9426;54.118;17.948;2022-10-16T16:32:09;16.77;;;11.13;;
18592;SDS011;9426;54.118;17.948;2022-10-16T16:37:33;12.37;;;8.07;;
18592;SDS011;9426;54.118;17.948;2022-10-16T16:42:57;26.70;;;16.67;;
18592;SDS011;9426;54.118;17.948;2022-10-16T16:48:22;26.03;;;14.57;;
18592;SDS011;9426;54.118;17.948;2022-10-16T16:53:46;17.30;;;11.10;;
18592;SDS011;9426;54.118;17.948;2022-10-16T16:59:11;13.43;;;9.20;;
18592;SDS011;9426;54.118;17.948;2022-10-16T17:04:38;40.67;;;22.10;;
18592;SDS011;9426;54.118;17.948;2022-10-16T17:10:02;25.83;;;14.10;;
18592;SDS011;9426;54.118;17.948;2022-10-16T17:15:26;94.33;;;34.10;;
18592;SDS011;9426;54.118;17.948;2022-10-16T17:20:51;44.60;;;19.57;;
18592;SDS011;9426;54.118;17.948;2022-10-16T17:26:16;132.20;;;45.80;;
18592;SDS011;9426;54.118;17.948;2022-10-16T17:31:39;99.63;;;38.27;;
18592;SDS011;9426;54.118;17.948;2022-10-16T17:37:04;74.93;;;30.27;;
18592;SDS011;9426;54.118;17.948;2022-10-16T17:42:28;54.53;;;23.90;;
18592;SDS011;9426;54.118;17.948;2022-10-16T17:47:51;33.60;;;18.17;;
18592;SDS011;9426;54.118;17.948;2022-10-16T17:53:16;22.20;;;13.43;;
18592;SDS011;9426;54.118;17.948;2022-10-16T17:58:40;17.03;;;11.10;;
18592;SDS011;9426;54.118;17.948;2022-10-16T18:04:05;17.23;;;12.00;;
18592;SDS011;9426;54.118;17.948;2022-10-16T18:09:32;17.87;;;12.60;;
18592;SDS011;9426;54.118;17.948;2022-10-16T18:14:55;16.23;;;12.77;;
18592;SDS011;9426;54.118;17.948;2022-10-16T18:20:19;21.23;;;14.33;;
18592;SDS011;9426;54.118;17.948;2022-10-16T18:25:49;20.73;;;14.83;;
18592;SDS011;9426;54.118;17.948;2022-10-16T18:31:14;19.57;;;14.33;;
18592;SDS011;9426;54.118;17.948;2022-10-16T18:36:39;20.53;;;15.93;;
18592;SDS011;9426;54.118;17.948;2022-10-16T18:42:05;28.03;;;18.30;;
18592;SDS011;9426;54.118;17.948;2022-10-16T18:47:28;23.70;;;17.33;;
18592;SDS011;9426;54.118;17.948;2022-10-16T18:52:52;28.20;;;19.03;;
18592;SDS011;9426;54.118;17.948;2022-10-16T18:58:17;27.37;;;19.03;;
18592;SDS011;9426;54.118;17.948;2022-10-16T19:03:41;25.60;;;17.30;;
18592;SDS011;9426;54.118;17.948;2022-10-16T19:09:04;28.90;;;18.57;;
18592;SDS011;9426;54.118;17.948;2022-10-16T19:14:30;21.83;;;15.97;;
18592;SDS011;9426;54.118;17.948;2022-10-16T19:19:53;23.47;;;15.00;;
18592;SDS011;9426;54.118;17.948;2022-10-16T19:25:17;30.80;;;20.67;;
18592;SDS011;9426;54.118;17.948;2022-10-16T19:30:44;35.20;;;20.77;;
18592;SDS011;9426;54.118;17.948;2022-10-16T19:36:08;29.77;;;19.67;;
18592;SDS011;9426;54.118;17.948;2022-10-16T19:41:34;32.07;;;19.07;;
18592;SDS011;9426;54.118;17.948;2022-10-16T19:47:00;27.53;;;18.23;;
18592;SDS011;9426;54.118;17.948;2022-10-16T19:52:23;24.07;;;16.70;;
18592;SDS011;9426;54.118;17.948;2022-10-16T19:57:47;27.50;;;19.07;;
18592;SDS011;9426;54.118;17.948;2022-10-16T20:03:11;24.97;;;18.03;;
18592;SDS011;9426;54.118;17.948;2022-10-16T20:08:35;23.53;;;14.90;;
18592;SDS011;9426;54.118;17.948;2022-10-16T20:14:00;19.83;;;13.63;;
18592;SDS011;9426;54.118;17.948;2022-10-16T20:19:25;21.50;;;14.30;;
18592;SDS011;9426;54.118;17.948;2022-10-16T20:24:48;23.97;;;14.50;;
18592;SDS011;9426;54.118;17.948;2022-10-16T20:30:12;15.53;;;11.03;;
18592;SDS011;9426;54.118;17.948;2022-10-16T20:35:37;17.23;;;12.00;;
18592;SDS011;9426;54.118;17.948;2022-10-16T20:41:02;16.00;;;10.27;;
18592;SDS011;9426;54.118;17.948;2022-10-16T20:46:26;14.53;;;10.53;;
18592;SDS011;9426;54.118;17.948;2022-10-16T20:51:51;15.67;;;11.60;;
18592;SDS011;9426;54.118;17.948;2022-10-16T20:57:15;23.13;;;13.77;;
18592;SDS011;9426;54.118;17.948;2022-10-16T21:02:39;18.27;;;14.40;;
18592;SDS011;9426;54.118;17.948;2022-10-16T21:08:04;27.93;;;19.10;;
18592;SDS011;9426;54.118;17.948;2022-10-16T21:13:27;21.57;;;15.67;;
18592;SDS011;9426;54.118;17.948;2022-10-16T21:18:50;18.07;;;12.50;;
18592;SDS011;9426;54.118;17.948;2022-10-16T21:24:16;19.93;;;14.00;;
18592;SDS011;9426;54.118;17.948;2022-10-16T21:29:39;22.23;;;15.40;;
18592;SDS011;9426;54.118;17.948;2022-10-16T21:35:02;24.07;;;16.40;;
18592;SDS011;9426;54.118;17.948;2022-10-16T21:40:29;25.40;;;16.93;;
18592;SDS011;9426;54.118;17.948;2022-10-16T21:45:53;27.00;;;17.03;;
18592;SDS011;9426;54.118;17.948;2022-10-16T21:51:16;21.53;;;15.43;;
18592;SDS011;9426;54.118;17.948;2022-10-16T21:56:41;23.47;;;15.90;;
18592;SDS011;9426;54.118;17.948;2022-10-16T22:02:04;21.23;;;14.77;;
18592;SDS011;9426;54.118;17.948;2022-10-16T22:07:28;23.53;;;15.03;;
18592;SDS011;9426;54.118;17.948;2022-10-16T22:12:53;24.97;;;14.93;;
18592;SDS011;9426;54.118;17.948;2022-10-16T22:18:16;20.83;;;13.57;;
18592;SDS011;9426;54.118;17.948;2022-10-16T22:23:40;19.37;;;13.73;;
18592;SDS011;9426;54.118;17.948;2022-10-16T22:29:05;19.43;;;14.40;;
18592;SDS011;9426;54.118;17.948;2022-10-16T22:34:28;18.97;;;12.60;;
18592;SDS011;9426;54.118;17.948;2022-10-16T22:39:52;17.43;;;13.03;;
18592;SDS011;9426;54.118;17.948;2022-10-16T22:45:17;19.93;;;14.00;;
18592;SDS011;9426;54.118;17.948;2022-10-16T22:50:40;16.30;;;12.70;;
18592;SDS011;9426;54.118;17.948;2022-10-16T22:56:04;18.80;;;14.00;;
18592;SDS011;9426;54.118;17.948;2022-10-16T23:01:30;22.73;;;15.23;;
18592;SDS011;9426;54.118;17.948;2022-10-16T23:06:54;22.20;;;16.13;;
18592;SDS011;9426;54.118;17.948;2022-10-16T23:12:19;20.70;;;15.27;;
18592;SDS011;9426;54.118;17.948;2022-10-16T23:17:47;20.87;;;16.23;;
18592;SDS011;9426;54.118;17.948;2022-10-16T23:23:10;21.67;;;15.47;;
18592;SDS011;9426;54.118;17.948;2022-10-16T23:28:34;17.40;;;12.43;;
18592;SDS011;9426;54.118;17.948;2022-10-16T23:33:59;15.80;;;12.07;;
18592;SDS011;9426;54.118;17.948;2022-10-16T23:39:22;14.83;;;10.83;;
18592;SDS011;9426;54.118;17.948;2022-10-16T23:44:46;11.33;;;8.83;;
18592;SDS011;9426;54.118;17.948;2022-10-16T23:50:10;11.30;;;9.20;;
18592;SDS011;9426;54.118;17.948;2022-10-16T23:55:34;14.13;;;10.63;;
